sensor_id;sensor_type;location;lat;lon;timestamp;pressure;altitude;pressure_sealevel;temperature;humidity
44385;BME280;30101;32.778;34.994;2023-02-11T00:05:03;98091.56;;;8.17;53.04
44385;BME280;30101;32.778;34.994;2023-02-11T00:10:07;98078.44;;;8.16;53.35
44385;BME280;30101;32.778;34.994;2023-02-11T00:15:10;98087.44;;;8.15;52.99
44385;BME280;30101;32.778;34.994;2023-02-11T00:20:14;98089.66;;;8.11;53.44
44385;BME280;30101;32.778;34.994;2023-02-11T00:25:17;98095.34;;;8.08;53.39
44385;BME280;30101;32.778;34.994;2023-02-11T00:30:20;98091.03;;;8.07;53.42
44385;BME280;30101;32.778;34.994;2023-02-11T00:35:23;98088.72;;;8.04;53.60
44385;BME280;30101;32.778;34.994;2023-02-11T00:40:26;98093.22;;;8.03;53.17
44385;BME280;30101;32.778;34.994;2023-02-11T00:45:30;98096.97;;;8.09;53.33
44385;BME280;30101;32.778;34.994;2023-02-11T00:50:34;98102.75;;;8.13;52.92
44385;BME280;30101;32.778;34.994;2023-02-11T00:55:37;98104.59;;;8.12;53.02
44385;BME280;30101;32.778;34.994;2023-02-11T01:00:41;98105.78;;;8.09;53.14
44385;BME280;30101;32.778;34.994;2023-02-11T01:05:44;98108.44;;;8.09;53.36
44385;BME280;30101;32.778;34.994;2023-02-11T01:10:54;98101.28;;;8.10;53.21
44385;BME280;30101;32.778;34.994;2023-02-11T01:15:58;98094.13;;;8.10;53.11
44385;BME280;30101;32.778;34.994;2023-02-11T01:21:02;98082.66;;;8.10;52.81
44385;BME280;30101;32.778;34.994;2023-02-11T01:26:05;98069.56;;;8.08;52.82
44385;BME280;30101;32.778;34.994;2023-02-11T01:31:08;98062.78;;;8.06;52.81
44385;BME280;30101;32.778;34.994;2023-02-11T01:36:11;98063.53;;;8.00;52.73
44385;BME280;30101;32.778;34.994;2023-02-11T01:41:15;98054.28;;;7.96;53.03
44385;BME280;30101;32.778;34.994;2023-02-11T01:46:27;98052.16;;;7.91;52.87
44385;BME280;30101;32.778;34.994;2023-02-11T01:51:36;98057.25;;;7.86;53.12
44385;BME280;30101;32.778;34.994;2023-02-11T01:56:45;98054.09;;;7.82;53.26
44385;BME280;30101;32.778;34.994;2023-02-11T02:01:57;98049.00;;;7.81;53.09
44385;BME280;30101;32.778;34.994;2023-02-11T02:07:07;98047.97;;;7.82;52.67
44385;BME280;30101;32.778;34.994;2023-02-11T02:12:12;98063.91;;;7.82;52.94
44385;BME280;30101;32.778;34.994;2023-02-11T02:17:41;98055.47;;;7.78;53.13
44385;BME280;30101;32.778;34.994;2023-02-11T02:33:51;98056.22;;;7.72;52.96
44385;BME280;30101;32.778;34.994;2023-02-11T02:39:05;98042.50;;;7.69;53.24
44385;BME280;30101;32.778;34.994;2023-02-11T02:44:10;98034.88;;;7.66;53.31
44385;BME280;30101;32.778;34.994;2023-02-11T02:49:14;98023.63;;;7.64;52.84
44385;BME280;30101;32.778;34.994;2023-02-11T03:00:31;98020.56;;;7.67;53.08
44385;BME280;30101;32.778;34.994;2023-02-11T03:10:50;98008.88;;;7.61;52.80
44385;BME280;30101;32.778;34.994;2023-02-11T03:15:56;98006.66;;;7.65;52.31
44385;BME280;30101;32.778;34.994;2023-02-11T03:21:01;98010.94;;;7.66;52.17
44385;BME280;30101;32.778;34.994;2023-02-11T03:26:39;98011.22;;;7.71;52.17
44385;BME280;30101;32.778;34.994;2023-02-11T03:37:27;97980.09;;;7.65;52.44
44385;BME280;30101;32.778;34.994;2023-02-11T03:42:34;97980.63;;;7.60;52.17
44385;BME280;30101;32.778;34.994;2023-02-11T03:47:44;97978.56;;;7.55;52.23
44385;BME280;30101;32.778;34.994;2023-02-11T03:52:49;97978.47;;;7.49;52.50
44385;BME280;30101;32.778;34.994;2023-02-11T03:57:54;97985.34;;;7.43;52.31
44385;BME280;30101;32.778;34.994;2023-02-11T04:02:57;97983.22;;;7.39;52.34
44385;BME280;30101;32.778;34.994;2023-02-11T04:08:01;97996.88;;;7.36;52.17
44385;BME280;30101;32.778;34.994;2023-02-11T04:13:04;97992.41;;;7.36;52.31
44385;BME280;30101;32.778;34.994;2023-02-11T04:18:07;97981.59;;;7.38;52.25
44385;BME280;30101;32.778;34.994;2023-02-11T04:23:11;97959.03;;;7.34;52.56
44385;BME280;30101;32.778;34.994;2023-02-11T04:28:14;97958.13;;;7.26;52.25
44385;BME280;30101;32.778;34.994;2023-02-11T04:33:17;97977.09;;;7.23;52.26
44385;BME280;30101;32.778;34.994;2023-02-11T04:38:20;97957.22;;;7.19;52.71
44385;BME280;30101;32.778;34.994;2023-02-11T04:43:23;97944.78;;;7.20;52.74
44385;BME280;30101;32.778;34.994;2023-02-11T04:48:26;97953.94;;;7.17;52.83
44385;BME280;30101;32.778;34.994;2023-02-11T04:53:30;97950.72;;;7.22;52.68
44385;BME280;30101;32.778;34.994;2023-02-11T04:58:33;97938.25;;;7.22;52.60
44385;BME280;30101;32.778;34.994;2023-02-11T05:03:37;97972.44;;;7.25;52.15
44385;BME280;30101;32.778;34.994;2023-02-11T05:08:40;97957.50;;;7.24;52.27
44385;BME280;30101;32.778;34.994;2023-02-11T05:13:43;97978.19;;;7.29;52.54
44385;BME280;30101;32.778;34.994;2023-02-11T05:18:46;97971.69;;;7.32;52.23
44385;BME280;30101;32.778;34.994;2023-02-11T05:23:49;97961.63;;;7.42;51.92
44385;BME280;30101;32.778;34.994;2023-02-11T05:28:52;97971.31;;;7.49;51.87
44385;BME280;30101;32.778;34.994;2023-02-11T05:33:55;97971.22;;;7.57;52.23
44385;BME280;30101;32.778;34.994;2023-02-11T05:38:59;97979.06;;;7.66;51.58
44385;BME280;30101;32.778;34.994;2023-02-11T05:44:02;97982.47;;;7.74;51.52
44385;BME280;30101;32.778;34.994;2023-02-11T05:49:05;97981.72;;;7.80;51.69
44385;BME280;30101;32.778;34.994;2023-02-11T05:54:08;97989.56;;;7.89;51.80
44385;BME280;30101;32.778;34.994;2023-02-11T05:59:15;97981.13;;;8.00;51.44
44385;BME280;30101;32.778;34.994;2023-02-11T06:04:18;97971.44;;;8.14;51.38
44385;BME280;30101;32.778;34.994;2023-02-11T06:09:21;97966.88;;;8.29;50.98
44385;BME280;30101;32.778;34.994;2023-02-11T06:14:24;97982.56;;;8.38;50.76
44385;BME280;30101;32.778;34.994;2023-02-11T06:19:28;97950.66;;;8.67;50.40
44385;BME280;30101;32.778;34.994;2023-02-11T06:24:31;97961.84;;;9.11;49.92
44385;BME280;30101;32.778;34.994;2023-02-11T06:29:55;97959.66;;;9.28;49.54
44385;BME280;30101;32.778;34.994;2023-02-11T06:34:58;97948.84;;;9.02;50.11
44385;BME280;30101;32.778;34.994;2023-02-11T06:40:01;97948.78;;;8.88;50.03
44385;BME280;30101;32.778;34.994;2023-02-11T06:45:06;97952.47;;;8.87;50.13
44385;BME280;30101;32.778;34.994;2023-02-11T06:50:12;97973.16;;;8.92;49.84
44385;BME280;30101;32.778;34.994;2023-02-11T06:55:15;97961.72;;;8.98;50.06
44385;BME280;30101;32.778;34.994;2023-02-11T07:00:18;97942.72;;;9.01;49.45
44385;BME280;30101;32.778;34.994;2023-02-11T07:05:22;97956.03;;;9.01;49.69
44385;BME280;30101;32.778;34.994;2023-02-11T07:10:25;97959.56;;;9.08;49.70
44385;BME280;30101;32.778;34.994;2023-02-11T07:15:28;97966.75;;;9.14;49.46
44385;BME280;30101;32.778;34.994;2023-02-11T07:20:31;97959.25;;;9.25;49.50
44385;BME280;30101;32.778;34.994;2023-02-11T07:25:35;97961.75;;;9.33;49.40
44385;BME280;30101;32.778;34.994;2023-02-11T07:30:38;97962.59;;;9.40;49.01
44385;BME280;30101;32.778;34.994;2023-02-11T07:35:41;97970.38;;;9.41;48.70
44385;BME280;30101;32.778;34.994;2023-02-11T07:40:44;97955.47;;;9.54;49.39
44385;BME280;30101;32.778;34.994;2023-02-11T07:45:48;97977.88;;;9.66;49.28
44385;BME280;30101;32.778;34.994;2023-02-11T07:50:51;97967.47;;;9.78;49.09
44385;BME280;30101;32.778;34.994;2023-02-11T07:55:54;97961.59;;;9.95;49.34
44385;BME280;30101;32.778;34.994;2023-02-11T08:01:02;97952.81;;;10.15;49.22
44385;BME280;30101;32.778;34.994;2023-02-11T08:06:12;97955.72;;;10.20;48.32
44385;BME280;30101;32.778;34.994;2023-02-11T08:11:26;97936.22;;;10.19;48.00
44385;BME280;30101;32.778;34.994;2023-02-11T08:16:33;97946.13;;;10.32;48.15
44385;BME280;30101;32.778;34.994;2023-02-11T08:21:37;97942.41;;;10.33;47.59
44385;BME280;30101;32.778;34.994;2023-02-11T08:26:41;97938.31;;;10.37;47.67
44385;BME280;30101;32.778;34.994;2023-02-11T08:31:46;97939.53;;;10.48;47.10
44385;BME280;30101;32.778;34.994;2023-02-11T08:36:49;97924.75;;;10.52;47.79
44385;BME280;30101;32.778;34.994;2023-02-11T08:41:54;97925.56;;;10.66;46.89
44385;BME280;30101;32.778;34.994;2023-02-11T08:46:57;97922.50;;;10.75;47.42
44385;BME280;30101;32.778;34.994;2023-02-11T08:52:00;97906.88;;;10.79;47.41
44385;BME280;30101;32.778;34.994;2023-02-11T08:57:06;97900.47;;;10.87;46.95
44385;BME280;30101;32.778;34.994;2023-02-11T09:02:13;97882.00;;;10.78;47.03
44385;BME280;30101;32.778;34.994;2023-02-11T09:07:17;97886.31;;;10.79;47.68
44385;BME280;30101;32.778;34.994;2023-02-11T09:12:20;97878.94;;;10.88;46.67
44385;BME280;30101;32.778;34.994;2023-02-11T09:17:23;97890.63;;;10.94;46.66
44385;BME280;30101;32.778;34.994;2023-02-11T09:22:26;97878.50;;;10.91;47.25
44385;BME280;30101;32.778;34.994;2023-02-11T09:27:29;97871.69;;;11.02;46.87
44385;BME280;30101;32.778;34.994;2023-02-11T09:32:33;97858.69;;;11.19;46.30
44385;BME280;30101;32.778;34.994;2023-02-11T09:37:36;97864.25;;;11.17;46.48
44385;BME280;30101;32.778;34.994;2023-02-11T09:42:44;97854.59;;;11.16;46.71
44385;BME280;30101;32.778;34.994;2023-02-11T09:47:56;97857.19;;;11.36;47.13
44385;BME280;30101;32.778;34.994;2023-02-11T09:53:20;97848.47;;;11.54;46.33
44385;BME280;30101;32.778;34.994;2023-02-11T09:58:27;97827.66;;;11.56;45.72
44385;BME280;30101;32.778;34.994;2023-02-11T10:25:37;97804.84;;;11.92;46.29
44385;BME280;30101;32.778;34.994;2023-02-11T10:35:55;97761.09;;;12.04;46.41
44385;BME280;30101;32.778;34.994;2023-02-11T10:40:58;97770.06;;;12.17;46.09
44385;BME280;30101;32.778;34.994;2023-02-11T10:46:03;97754.44;;;12.13;45.70
44385;BME280;30101;32.778;34.994;2023-02-11T10:56:26;97763.28;;;12.14;45.84
44385;BME280;30101;32.778;34.994;2023-02-11T11:01:49;97767.66;;;12.08;46.14
44385;BME280;30101;32.778;34.994;2023-02-11T11:06:54;97784.66;;;11.96;45.75
44385;BME280;30101;32.778;34.994;2023-02-11T11:11:57;97791.84;;;11.95;46.21
44385;BME280;30101;32.778;34.994;2023-02-11T11:17:00;97782.13;;;12.01;46.11
44385;BME280;30101;32.778;34.994;2023-02-11T11:22:04;97775.06;;;12.06;45.86
44385;BME280;30101;32.778;34.994;2023-02-11T11:27:16;97758.44;;;12.04;46.17
44385;BME280;30101;32.778;34.994;2023-02-11T11:32:27;97764.59;;;12.05;46.41
44385;BME280;30101;32.778;34.994;2023-02-11T11:37:34;97783.72;;;12.08;46.01
44385;BME280;30101;32.778;34.994;2023-02-11T11:42:38;97762.25;;;12.15;45.57
44385;BME280;30101;32.778;34.994;2023-02-11T11:53:00;97766.44;;;12.29;45.65
44385;BME280;30101;32.778;34.994;2023-02-11T11:58:17;97753.63;;;12.31;45.51
44385;BME280;30101;32.778;34.994;2023-02-11T12:30:49;97762.66;;;12.37;45.41
44385;BME280;30101;32.778;34.994;2023-02-11T12:36:16;97767.19;;;12.36;45.35
44385;BME280;30101;32.778;34.994;2023-02-11T12:41:47;97759.78;;;12.38;45.66
44385;BME280;30101;32.778;34.994;2023-02-11T12:47:01;97759.78;;;12.38;45.59
44385;BME280;30101;32.778;34.994;2023-02-11T12:52:30;97747.13;;;12.46;45.25
44385;BME280;30101;32.778;34.994;2023-02-11T12:57:40;97763.31;;;12.51;45.15
44385;BME280;30101;32.778;34.994;2023-02-11T13:08:32;97755.03;;;12.59;45.40
44385;BME280;30101;32.778;34.994;2023-02-11T13:13:55;97752.94;;;12.61;45.45
44385;BME280;30101;32.778;34.994;2023-02-11T13:24:36;97763.94;;;12.71;45.36
44385;BME280;30101;32.778;34.994;2023-02-11T13:35:33;97776.06;;;12.74;45.18
44385;BME280;30101;32.778;34.994;2023-02-11T13:40:37;97801.38;;;12.78;45.64
44385;BME280;30101;32.778;34.994;2023-02-11T13:45:44;97796.38;;;12.81;45.63
44385;BME280;30101;32.778;34.994;2023-02-11T13:50:52;97802.34;;;12.83;45.20
44385;BME280;30101;32.778;34.994;2023-02-11T13:56:12;97812.03;;;12.84;45.62
44385;BME280;30101;32.778;34.994;2023-02-11T14:02:05;97812.03;;;12.84;45.39
44385;BME280;30101;32.778;34.994;2023-02-11T14:07:30;97809.78;;;12.81;46.09
44385;BME280;30101;32.778;34.994;2023-02-11T14:12:34;97817.31;;;12.73;45.75
44385;BME280;30101;32.778;34.994;2023-02-11T14:17:37;97817.59;;;12.64;45.86
44385;BME280;30101;32.778;34.994;2023-02-11T14:22:46;97816.47;;;12.54;46.17
44385;BME280;30101;32.778;34.994;2023-02-11T14:27:56;97828.53;;;12.38;47.12
44385;BME280;30101;32.778;34.994;2023-02-11T14:43:48;97838.81;;;12.16;47.98
44385;BME280;30101;32.778;34.994;2023-02-11T14:48:56;97839.88;;;12.15;48.26
44385;BME280;30101;32.778;34.994;2023-02-11T14:54:15;97847.50;;;12.11;48.95
44385;BME280;30101;32.778;34.994;2023-02-11T14:59:21;97857.44;;;12.04;49.23
44385;BME280;30101;32.778;34.994;2023-02-11T15:04:32;97876.03;;;11.93;49.37
44385;BME280;30101;32.778;34.994;2023-02-11T15:09:45;97874.22;;;11.80;49.05
44385;BME280;30101;32.778;34.994;2023-02-11T15:14:52;97876.16;;;11.66;50.36
44385;BME280;30101;32.778;34.994;2023-02-11T15:19:59;97881.97;;;11.56;49.93
44385;BME280;30101;32.778;34.994;2023-02-11T15:25:10;97880.56;;;11.47;50.65
44385;BME280;30101;32.778;34.994;2023-02-11T15:35:35;97895.88;;;11.27;50.21
44385;BME280;30101;32.778;34.994;2023-02-11T15:40:39;97908.22;;;11.21;50.69
44385;BME280;30101;32.778;34.994;2023-02-11T15:45:57;97901.06;;;11.15;50.81
44385;BME280;30101;32.778;34.994;2023-02-11T15:56:24;97914.44;;;11.02;51.47
44385;BME280;30101;32.778;34.994;2023-02-11T16:01:33;97919.81;;;10.95;51.72
44385;BME280;30101;32.778;34.994;2023-02-11T16:06:41;97913.44;;;10.90;51.79
44385;BME280;30101;32.778;34.994;2023-02-11T16:16:53;97927.41;;;10.78;52.39
44385;BME280;30101;32.778;34.994;2023-02-11T16:21:59;97937.88;;;10.73;52.47
44385;BME280;30101;32.778;34.994;2023-02-11T16:27:06;97947.38;;;10.69;52.98
44385;BME280;30101;32.778;34.994;2023-02-11T16:32:23;97952.06;;;10.67;53.18
44385;BME280;30101;32.778;34.994;2023-02-11T16:37:27;97950.03;;;10.63;52.95
44385;BME280;30101;32.778;34.994;2023-02-11T16:42:30;97958.22;;;10.61;52.71
44385;BME280;30101;32.778;34.994;2023-02-11T16:47:34;97961.09;;;10.60;53.33
44385;BME280;30101;32.778;34.994;2023-02-11T16:52:37;97965.84;;;10.58;53.50
44385;BME280;30101;32.778;34.994;2023-02-11T16:57:40;97971.19;;;10.51;53.98
44385;BME280;30101;32.778;34.994;2023-02-11T17:02:44;97975.28;;;10.47;53.74
44385;BME280;30101;32.778;34.994;2023-02-11T17:07:48;97976.50;;;10.44;54.23
44385;BME280;30101;32.778;34.994;2023-02-11T17:12:51;97975.88;;;10.42;54.38
44385;BME280;30101;32.778;34.994;2023-02-11T17:17:54;97984.31;;;10.39;53.78
44385;BME280;30101;32.778;34.994;2023-02-11T17:22:58;97982.22;;;10.35;53.80
44385;BME280;30101;32.778;34.994;2023-02-11T17:28:02;97984.69;;;10.30;53.45
44385;BME280;30101;32.778;34.994;2023-02-11T17:33:06;97989.84;;;10.24;54.08
44385;BME280;30101;32.778;34.994;2023-02-11T17:38:09;97983.25;;;10.27;54.46
44385;BME280;30101;32.778;34.994;2023-02-11T17:43:12;97980.38;;;10.29;54.52
44385;BME280;30101;32.778;34.994;2023-02-11T17:48:16;97979.16;;;10.24;54.73
44385;BME280;30101;32.778;34.994;2023-02-11T17:53:19;97985.66;;;10.22;54.32
44385;BME280;30101;32.778;34.994;2023-02-11T17:58:22;97991.81;;;10.16;54.39
44385;BME280;30101;32.778;34.994;2023-02-11T18:03:25;97995.72;;;10.13;55.13
44385;BME280;30101;32.778;34.994;2023-02-11T18:08:29;97987.72;;;10.20;55.28
44385;BME280;30101;32.778;34.994;2023-02-11T18:13:32;97979.72;;;10.20;55.32
44385;BME280;30101;32.778;34.994;2023-02-11T18:18:35;97986.25;;;10.17;55.72
44385;BME280;30101;32.778;34.994;2023-02-11T18:23:40;97979.72;;;10.13;55.10
44385;BME280;30101;32.778;34.994;2023-02-11T18:28:43;97983.78;;;10.09;55.14
44385;BME280;30101;32.778;34.994;2023-02-11T18:33:48;97978.88;;;10.13;55.43
44385;BME280;30101;32.778;34.994;2023-02-11T18:38:52;97976.81;;;10.15;56.07
44385;BME280;30101;32.778;34.994;2023-02-11T18:43:56;97984.41;;;10.18;56.51
44385;BME280;30101;32.778;34.994;2023-02-11T18:49:00;97976.41;;;10.18;56.84
44385;BME280;30101;32.778;34.994;2023-02-11T18:54:03;97973.13;;;10.16;55.88
44385;BME280;30101;32.778;34.994;2023-02-11T18:59:06;97982.16;;;10.15;56.44
44385;BME280;30101;32.778;34.994;2023-02-11T19:04:09;97985.88;;;10.14;56.54
44385;BME280;30101;32.778;34.994;2023-02-11T19:09:15;97979.88;;;10.12;56.93
44385;BME280;30101;32.778;34.994;2023-02-11T19:14:24;97984.41;;;10.11;57.39
44385;BME280;30101;32.778;34.994;2023-02-11T19:19:29;97973.53;;;10.06;57.53
44385;BME280;30101;32.778;34.994;2023-02-11T19:24:34;97981.31;;;10.01;57.71
44385;BME280;30101;32.778;34.994;2023-02-11T19:29:37;97980.66;;;9.99;57.95
44385;BME280;30101;32.778;34.994;2023-02-11T19:34:40;97979.44;;;9.95;58.27
44385;BME280;30101;32.778;34.994;2023-02-11T19:39:44;97985.59;;;9.95;57.63
44385;BME280;30101;32.778;34.994;2023-02-11T19:44:47;97988.06;;;9.97;57.99
44385;BME280;30101;32.778;34.994;2023-02-11T19:49:50;97989.09;;;10.03;57.62
44385;BME280;30101;32.778;34.994;2023-02-11T19:54:53;97989.34;;;10.08;58.12
44385;BME280;30101;32.778;34.994;2023-02-11T19:59:56;97990.97;;;10.09;58.41
44385;BME280;30101;32.778;34.994;2023-02-11T20:05:00;97992.59;;;10.03;58.11
44385;BME280;30101;32.778;34.994;2023-02-11T20:10:05;97987.03;;;9.98;58.91
44385;BME280;30101;32.778;34.994;2023-02-11T20:15:08;97988.47;;;9.94;59.22
44385;BME280;30101;32.778;34.994;2023-02-11T20:20:12;97991.97;;;9.94;59.24
44385;BME280;30101;32.778;34.994;2023-02-11T20:25:15;97991.75;;;9.96;59.03
44385;BME280;30101;32.778;34.994;2023-02-11T20:30:18;97984.78;;;9.95;59.40
44385;BME280;30101;32.778;34.994;2023-02-11T20:35:21;97993.00;;;9.93;58.85
44385;BME280;30101;32.778;34.994;2023-02-11T20:40:24;97988.47;;;9.87;59.24
44385;BME280;30101;32.778;34.994;2023-02-11T20:45:27;97975.50;;;9.84;59.63
44385;BME280;30101;32.778;34.994;2023-02-11T20:50:32;97991.72;;;9.83;59.08
44385;BME280;30101;32.778;34.994;2023-02-11T20:55:36;97986.16;;;9.84;59.36
44385;BME280;30101;32.778;34.994;2023-02-11T21:00:40;97993.38;;;9.90;59.74
44385;BME280;30101;32.778;34.994;2023-02-11T21:05:43;97987.25;;;9.96;59.94
44385;BME280;30101;32.778;34.994;2023-02-11T21:10:47;97983.34;;;9.99;59.55
44385;BME280;30101;32.778;34.994;2023-02-11T21:15:54;97982.53;;;10.05;59.54
44385;BME280;30101;32.778;34.994;2023-02-11T21:20:58;97991.56;;;10.04;59.77
44385;BME280;30101;32.778;34.994;2023-02-11T21:26:02;97989.31;;;10.01;59.41
44385;BME280;30101;32.778;34.994;2023-02-11T21:31:05;97989.09;;;9.96;59.25
44385;BME280;30101;32.778;34.994;2023-02-11T21:36:09;97982.31;;;9.93;59.81
44385;BME280;30101;32.778;34.994;2023-02-11T21:41:12;97994.66;;;10.01;59.77
44385;BME280;30101;32.778;34.994;2023-02-11T21:46:16;97990.16;;;10.08;59.76
44385;BME280;30101;32.778;34.994;2023-02-11T21:51:22;97988.53;;;10.14;59.60
44385;BME280;30101;32.778;34.994;2023-02-11T21:56:27;97978.88;;;10.13;59.72
44385;BME280;30101;32.778;34.994;2023-02-11T22:01:32;97969.63;;;10.09;60.06
44385;BME280;30101;32.778;34.994;2023-02-11T22:06:36;97971.28;;;10.10;59.74
44385;BME280;30101;32.778;34.994;2023-02-11T22:11:39;97978.06;;;10.12;60.04
44385;BME280;30101;32.778;34.994;2023-02-11T22:16:45;97977.63;;;10.09;59.72
44385;BME280;30101;32.778;34.994;2023-02-11T22:21:49;97975.78;;;10.09;59.57
44385;BME280;30101;32.778;34.994;2023-02-11T22:26:52;97967.56;;;10.11;59.40
44385;BME280;30101;32.778;34.994;2023-02-11T22:31:55;97963.06;;;10.18;59.33
44385;BME280;30101;32.778;34.994;2023-02-11T22:37:00;97957.34;;;10.21;59.06
44385;BME280;30101;32.778;34.994;2023-02-11T22:42:04;97963.91;;;10.18;59.15
44385;BME280;30101;32.778;34.994;2023-02-11T22:47:07;97951.41;;;10.19;58.19
44385;BME280;30101;32.778;34.994;2023-02-11T22:52:10;97946.06;;;10.19;57.39
44385;BME280;30101;32.778;34.994;2023-02-11T22:57:14;97948.31;;;10.15;57.31
44385;BME280;30101;32.778;34.994;2023-02-11T23:02:17;97947.06;;;10.18;58.14
44385;BME280;30101;32.778;34.994;2023-02-11T23:07:20;97950.38;;;10.20;57.28
44385;BME280;30101;32.778;34.994;2023-02-11T23:12:23;97948.31;;;10.22;56.52
44385;BME280;30101;32.778;34.994;2023-02-11T23:17:26;97947.13;;;10.24;56.59
44385;BME280;30101;32.778;34.994;2023-02-11T23:22:29;97942.19;;;10.28;55.62
44385;BME280;30101;32.778;34.994;2023-02-11T23:27:33;97946.50;;;10.29;55.50
44385;BME280;30101;32.778;34.994;2023-02-11T23:32:38;97950.22;;;10.41;54.54
44385;BME280;30101;32.778;34.994;2023-02-11T23:37:42;97952.88;;;10.48;54.91
44385;BME280;30101;32.778;34.994;2023-02-11T23:42:45;97967.06;;;10.55;55.02
44385;BME280;30101;32.778;34.994;2023-02-11T23:47:48;97992.31;;;10.52;54.47
44385;BME280;30101;32.778;34.994;2023-02-11T23:52:52;97994.78;;;10.47;55.15
44385;BME280;30101;32.778;34.994;2023-02-11T23:57:55;98000.09;;;10.41;56.18
